This is the latest recevied weather packets stored in our database for station/object AA7DG. If no packets are shown the sender has not sent any weather packets the latest 10 day(s).
| Time | Temp. | Humidity | Pressure | Rain* | Wind** | Luminosity | Snow |
|---|---|---|---|---|---|---|---|
| 1778104800 | 27.22° C | 32% | 1011.8 hPa | - | - | - | - |
| 1778102701 | 27.22° C | 33% | 1011.9 hPa | - | - | - | - |
| 1778102401 | 27.22° C | 33% | 1012 hPa | - | - | - | - |
| 1778094601 | 25° C | 40% | 1013.5 hPa | - | - | - | - |
| 1778093401 | 24.44° C | 39% | 1013.9 hPa | - | - | - | - |
| 1778092807 | 24.44° C | 39% | 1013.9 hPa | - | - | - | - |
| 1778089501 | 21.67° C | 41% | 1014.2 hPa | - | - | - | - |
| 1778087401 | 19.44° C | 39% | 1014.6 hPa | - | - | - | - |
| 1778087101 | 19.44° C | 41% | 1014.6 hPa | - | - | - | - |
| 1778086515 | 18.33° C | 41% | 1014.9 hPa | - | - | - | - |
| 1778085905 | 18.33° C | 42% | 1014.9 hPa | - | - | - | - |
| 1778080501 | 14.44° C | 61% | 1015.2 hPa | - | - | - | - |
| 1778079906 | 13.33° C | 64% | 1015.3 hPa | - | - | - | - |
| 1778079001 | 11.67° C | 71% | 1015.2 hPa | - | - | - | - |
| 1778078701 | 11.11° C | 73% | 1015.2 hPa | - | - | - | - |
| 1778078101 | 10.56° C | 76% | 1015.2 hPa | - | - | - | - |
| 1778077801 | 10° C | 78% | 1015.2 hPa | - | - | - | - |
| 1778070301 | 6.67° C | 86% | 1014.6 hPa | - | - | - | - |
| 1778069701 | 6.67° C | 85% | 1014.6 hPa | - | - | - | - |
| 1778068201 | 7.22° C | 84% | 1014.4 hPa | - | - | - | - |
| 1778067300 | 7.78° C | 83% | 1014.2 hPa | - | - | - | - |
| 1778065801 | 7.78° C | 82% | 1014.2 hPa | - | - | - | - |
| 1778064906 | 8.33° C | 80% | 1014.2 hPa | - | - | - | - |
| 1778061301 | 8.89° C | 76% | 1014.2 hPa | - | - | - | - |
| 1778059501 | 9.44° C | 74% | 1014.2 hPa | - | - | - | - |
* Rain since midnight (hover to see other rain measurements)
** Current wind speed in m/s (hover to see current wind gust speed)